Impacts METAR Board INFO
IDs:

KEAU - Eau Claire/Chippewa, WI, US

Updated at: 1535 UTC 25 Feb 2018
Potential Impact None Slight Moderate High
Time25/03Z 25/04Z 25/05Z 25/06Z 25/07Z 25/08Z 25/09Z 25/10Z 25/11Z 25/12Z 25/13Z 25/14Z 25/15Z
VIS0.5 0.5 1.25 2.5 8 3 3 4 4 4 6 6 9
CIG5 7 22 11 11 12 14 16 14 13 12 13 14
CoverOVXOVXOVCOVCOVCOVCOVCOVCOVCOVCOVCOVCOVC
FltCatLIFRLIFRIFRIFRMVFRMVFRMVFRMVFRMVFRMVFRMVFRMVFRMVFR
WXSN FZFGSN FZFG-SN BR-SN BR--BRBRBRBRBRBRBR--
WDir1300150210240250240250250250250250260
WSpd7 0 3 8 12 16 17 16 17 16 14 16 12
WGst-- -- -- -- 20 29 25 28 25 25 22 22 22
Raw hourly METARs
KEAU 250256Z AUTO 13007KT 1/2SM SN FZFG VV005 M01/M01 A2951 RMK AO2 SLP008 P0006 60011 I3000 T10061011 58032
KEAU 250356Z AUTO 00000KT 1/2SM SN FZFG VV007 M01/M01 A2948 RMK AO2 SLP995 P0010 T10061011
KEAU 250505Z AUTO 15003KT 1 1/4SM -SN BR OVC022 M01/M01 A2943 RMK AO2 P0000 T10061011
KEAU 250603Z AUTO 21008KT 2 1/2SM -SN BR SCT004 BKN011 OVC022 M01/M01 A2940 RMK AO2 P0000 T10061011
KEAU 250704Z AUTO 24012G20KT 8SM OVC011 M01/M02 A2940 RMK AO2 T10061017
KEAU 250804Z AUTO 25016G29KT 3SM BR OVC012 M03/M06 A2944 RMK AO2 PK WND 24029/0759 SNE04 P0000 T10331056
KEAU 250856Z AUTO 24017G25KT 3SM BR OVC014 M05/M07 A2947 RMK AO2 PK WND 25033/0811 SNE04 SLP990 P0000 60000 T10501072 53022
KEAU 250956Z AUTO 25016G28KT 4SM BR OVC016 M06/M08 A2949 RMK AO2 PK WND 24028/0915 SNB0858E27 SLP997 P0000 T10611083
KEAU 251056Z AUTO 25017G25KT 4SM BR OVC014 M07/M09 A2953 RMK AO2 PK WND 24031/1030 SLP011 T10671089
KEAU 251156Z 25016G25KT 4SM BR OVC013 M07/M09 A2956 RMK AO2 PK WND 26027/1135 SLP021 60000 70025 T10721094 10000 21072 53030
KEAU 251256Z 25014G22KT 6SM BR OVC012 M07/M09 A2959 RMK AO2 PK WND 25032/1216 SLP033 T10721094
KEAU 251356Z 25016G22KT 6SM BR OVC013 M07/M09 A2963 RMK AO2 SLP046 T10671089
KEAU 251456Z 26012G22KT 9SM OVC014 M06/M08 A2964 RMK AO2 SLP049 T10611083 51026